createdAt,value
2018-04-26T00:00:10.549Z,20.42
2018-04-26T00:01:11.226Z,20.4
2018-04-26T00:02:10.928Z,20.56
2018-04-26T00:03:17.938Z,20.41
2018-04-26T00:04:10.671Z,20.38
2018-04-26T00:05:10.634Z,20.54
2018-04-26T00:06:11.028Z,20.41
2018-04-26T00:07:13.096Z,20.39
2018-04-26T00:08:10.623Z,20.54
2018-04-26T00:09:10.879Z,20.4
2018-04-26T00:10:10.763Z,20.39
2018-04-26T00:11:10.760Z,20.54
2018-04-26T00:12:10.944Z,20.4
2018-04-26T00:13:10.932Z,20.38
2018-04-26T00:14:10.572Z,20.53
2018-04-26T00:15:11.211Z,20.41
2018-04-26T00:16:10.606Z,20.38
2018-04-26T00:17:10.602Z,20.53
2018-04-26T00:18:10.506Z,20.41
2018-04-26T00:19:10.794Z,20.38
2018-04-26T00:20:10.939Z,20.53
2018-04-26T00:21:11.250Z,20.39
2018-04-26T00:22:10.739Z,20.37
2018-04-26T00:23:10.681Z,20.53
2018-04-26T00:24:10.888Z,20.39
2018-04-26T00:25:10.867Z,20.37
2018-04-26T00:26:11.007Z,20.53
2018-04-26T00:27:10.498Z,20.39
2018-04-26T00:28:10.644Z,20.36
2018-04-26T00:29:10.969Z,20.52
2018-04-26T00:30:11.135Z,20.39
2018-04-26T00:31:10.684Z,20.36
2018-04-26T00:32:11.150Z,20.51
2018-04-26T00:33:10.712Z,20.38
2018-04-26T00:34:10.523Z,20.36
2018-04-26T00:35:11.240Z,20.52
2018-04-26T00:36:10.787Z,20.38
2018-04-26T00:37:11.016Z,20.35
2018-04-26T00:38:10.628Z,20.52
2018-04-26T00:39:10.508Z,20.38
2018-04-26T00:40:13.068Z,20.35
2018-04-26T00:41:10.851Z,20.51
2018-04-26T00:42:10.675Z,20.37
2018-04-26T00:43:11.914Z,20.35
2018-04-26T00:44:12.912Z,20.51
2018-04-26T00:45:10.564Z,20.38
2018-04-26T00:46:10.774Z,20.36
2018-04-26T00:47:10.695Z,20.5
2018-04-26T00:48:11.716Z,20.37
2018-04-26T00:49:11.969Z,20.35
2018-04-26T00:50:11.098Z,20.49
2018-04-26T00:51:10.768Z,20.36
2018-04-26T00:52:11.347Z,20.35
2018-04-26T00:53:11.151Z,20.5
2018-04-26T00:54:11.109Z,20.36
2018-04-26T00:55:11.146Z,20.34
2018-04-26T00:56:10.654Z,20.49
2018-04-26T00:57:10.512Z,20.36
2018-04-26T00:58:10.906Z,20.33
2018-04-26T00:59:11.168Z,20.49
2018-04-26T01:00:10.929Z,20.35
2018-04-26T01:01:10.627Z,20.33
2018-04-26T01:02:10.839Z,20.48
2018-04-26T01:03:10.802Z,20.35
2018-04-26T01:04:10.499Z,20.33
2018-04-26T01:05:10.936Z,20.49
2018-04-26T01:06:11.297Z,20.35
2018-04-26T01:07:10.479Z,20.35
2018-04-26T01:08:10.506Z,20.5
2018-04-26T01:09:10.932Z,20.35
2018-04-26T01:10:10.762Z,20.33
2018-04-26T01:11:14.115Z,20.48
2018-04-26T01:12:10.599Z,20.35
2018-04-26T01:13:10.722Z,20.32
2018-04-26T01:14:10.687Z,20.49
2018-04-26T01:15:12.903Z,20.35
2018-04-26T01:16:15.647Z,20.32
2018-04-26T01:17:16.423Z,20.47
2018-04-26T01:18:10.515Z,20.35
2018-04-26T01:19:11.188Z,20.32
2018-04-26T01:20:11.926Z,20.48
2018-04-26T01:21:13.894Z,20.34
2018-04-26T01:22:10.562Z,20.32
2018-04-26T01:23:11.131Z,20.47
2018-04-26T01:24:10.659Z,20.35
2018-04-26T01:25:10.792Z,20.31
2018-04-26T01:26:11.025Z,20.47
2018-04-26T01:27:10.723Z,20.34
2018-04-26T01:28:11.759Z,20.31
2018-04-26T01:29:10.961Z,20.47
2018-04-26T01:30:12.451Z,20.34
2018-04-26T01:31:10.512Z,20.3
2018-04-26T01:32:10.605Z,20.47
2018-04-26T01:33:10.899Z,20.32
2018-04-26T01:34:10.906Z,20.3
2018-04-26T01:35:10.782Z,20.46
2018-04-26T01:36:11.895Z,20.32
2018-04-26T01:37:12.331Z,20.31
2018-04-26T01:38:10.508Z,20.46
2018-04-26T01:39:10.731Z,20.33
2018-04-26T01:40:11.004Z,20.31
2018-04-26T01:41:12.916Z,20.47
2018-04-26T01:42:12.210Z,20.33
2018-04-26T01:43:10.810Z,20.3
2018-04-26T01:44:10.817Z,20.46
2018-04-26T01:45:10.869Z,20.33
2018-04-26T01:46:11.443Z,20.31
2018-04-26T01:47:11.679Z,20.47
2018-04-26T01:48:11.523Z,20.33
2018-04-26T01:49:11.208Z,20.3
2018-04-26T01:50:10.972Z,20.46
2018-04-26T01:51:11.211Z,20.33
2018-04-26T01:52:13.144Z,20.31
2018-04-26T01:53:10.662Z,20.46
2018-04-26T01:54:10.403Z,20.32
2018-04-26T01:55:10.896Z,20.3
2018-04-26T01:56:11.391Z,20.46
2018-04-26T01:57:11.641Z,20.32
2018-04-26T01:58:10.869Z,20.3
2018-04-26T01:59:11.075Z,20.46
2018-04-26T02:00:10.492Z,20.31
2018-04-26T02:01:11.190Z,20.3
2018-04-26T02:02:13.253Z,20.47
2018-04-26T02:03:11.609Z,20.31
2018-04-26T02:04:10.649Z,20.3
2018-04-26T02:05:10.655Z,20.45
2018-04-26T02:06:10.813Z,20.31
2018-04-26T02:07:11.736Z,20.3
2018-04-26T02:08:12.509Z,20.45
2018-04-26T02:09:12.479Z,20.31
2018-04-26T02:10:10.622Z,20.29
2018-04-26T02:11:10.718Z,20.44
2018-04-26T02:12:10.742Z,20.3
2018-04-26T02:13:12.118Z,20.29
2018-04-26T02:14:14.197Z,20.44
2018-04-26T02:15:10.571Z,20.3
2018-04-26T02:16:11.132Z,20.28
2018-04-26T02:17:11.991Z,20.43
2018-04-26T02:18:10.689Z,20.3
2018-04-26T02:19:10.480Z,20.28
2018-04-26T02:20:11.000Z,20.44
2018-04-26T02:21:15.075Z,20.3
2018-04-26T02:22:10.733Z,20.28
2018-04-26T02:23:10.766Z,20.44
2018-04-26T02:24:10.773Z,20.3
2018-04-26T02:25:11.165Z,20.29
2018-04-26T02:26:14.104Z,20.44
2018-04-26T02:27:10.919Z,20.29
2018-04-26T02:28:11.129Z,20.27
2018-04-26T02:29:10.752Z,20.43
2018-04-26T02:30:11.412Z,20.3
2018-04-26T02:31:11.364Z,20.28
2018-04-26T02:32:21.585Z,20.44
2018-04-26T02:33:10.699Z,20.3
2018-04-26T02:34:11.085Z,20.27
2018-04-26T02:35:10.961Z,20.42
2018-04-26T02:36:10.660Z,20.3
2018-04-26T02:37:11.105Z,20.27
2018-04-26T02:38:10.600Z,20.42
2018-04-26T02:39:11.246Z,20.3
2018-04-26T02:40:11.330Z,20.27
2018-04-26T02:41:10.692Z,20.42
2018-04-26T02:42:11.564Z,20.29
2018-04-26T02:43:10.977Z,20.26
2018-04-26T02:44:10.560Z,20.42
2018-04-26T02:45:10.934Z,20.29
2018-04-26T02:46:11.136Z,20.27
2018-04-26T02:47:10.510Z,20.41
2018-04-26T02:48:10.657Z,20.29
2018-04-26T02:49:11.776Z,20.27
2018-04-26T02:50:10.971Z,20.42
2018-04-26T02:51:10.959Z,20.29
2018-04-26T02:52:11.250Z,20.27
2018-04-26T02:53:11.325Z,20.42
2018-04-26T02:54:11.047Z,20.29
2018-04-26T02:55:10.838Z,20.26
2018-04-26T02:56:10.662Z,20.41
2018-04-26T02:57:10.596Z,20.29
2018-04-26T02:58:10.536Z,20.26
2018-04-26T02:59:10.962Z,20.41
2018-04-26T03:00:10.536Z,20.28
2018-04-26T03:01:11.600Z,20.27
2018-04-26T03:02:11.458Z,20.41
2018-04-26T03:03:10.811Z,20.28
2018-04-26T03:04:10.620Z,20.26
2018-04-26T03:05:11.324Z,20.41
2018-04-26T03:06:12.461Z,20.28
2018-04-26T03:07:15.918Z,20.26
2018-04-26T03:08:11.370Z,20.41
2018-04-26T03:09:10.546Z,20.28
2018-04-26T03:10:11.082Z,20.26
2018-04-26T03:11:11.402Z,20.41
2018-04-26T03:12:11.456Z,20.28
2018-04-26T03:13:10.732Z,20.27
2018-04-26T03:14:10.907Z,20.41
2018-04-26T03:15:11.154Z,20.27
2018-04-26T03:16:31.753Z,20.24
2018-04-26T03:17:10.425Z,20.4
2018-04-26T03:18:10.799Z,20.27
2018-04-26T03:19:10.710Z,20.25
2018-04-26T03:20:11.126Z,20.39
2018-04-26T03:21:11.051Z,20.26
2018-04-26T03:22:11.114Z,20.24
2018-04-26T03:23:10.658Z,20.41
2018-04-26T03:24:10.933Z,20.27
2018-04-26T03:25:12.530Z,20.25
2018-04-26T03:26:10.548Z,20.4
2018-04-26T03:27:14.101Z,20.26
2018-04-26T03:28:11.070Z,20.24
2018-04-26T03:29:10.489Z,20.39
2018-04-26T03:30:10.613Z,20.26
2018-04-26T03:31:11.439Z,20.24
2018-04-26T03:32:12.063Z,20.39
2018-04-26T03:33:10.922Z,20.25
2018-04-26T03:34:10.714Z,20.24
2018-04-26T03:35:13.047Z,20.39
2018-04-26T03:36:10.789Z,20.26
2018-04-26T03:37:10.545Z,20.24
2018-04-26T03:38:10.857Z,20.4
2018-04-26T03:39:11.338Z,20.26
2018-04-26T03:40:10.704Z,20.24
2018-04-26T03:41:12.004Z,20.38
2018-04-26T03:42:13.248Z,20.26
2018-04-26T03:43:11.636Z,20.23
2018-04-26T03:44:10.713Z,20.38
2018-04-26T03:45:10.461Z,20.24
2018-04-26T03:46:10.885Z,20.22
2018-04-26T03:47:11.351Z,20.38
2018-04-26T03:48:10.897Z,20.24
2018-04-26T03:49:10.807Z,20.23
2018-04-26T03:50:10.942Z,20.39
2018-04-26T03:51:10.967Z,20.24
2018-04-26T03:52:10.897Z,20.22
2018-04-26T03:53:10.673Z,20.36
2018-04-26T03:54:11.169Z,20.24
2018-04-26T03:55:10.704Z,20.24
2018-04-26T03:56:10.972Z,20.38
2018-04-26T03:57:10.416Z,20.24
2018-04-26T03:58:10.498Z,20.22
2018-04-26T03:59:11.554Z,20.37
2018-04-26T04:00:11.091Z,20.24
2018-04-26T04:01:10.794Z,20.23
2018-04-26T04:02:10.686Z,20.37
2018-04-26T04:03:11.076Z,20.25
2018-04-26T04:04:10.747Z,20.23
2018-04-26T04:05:11.326Z,20.37
2018-04-26T04:06:11.477Z,20.25
2018-04-26T04:07:10.616Z,20.24
2018-04-26T04:08:14.693Z,20.36
2018-04-26T04:09:10.495Z,20.25
2018-04-26T04:10:10.525Z,20.22
2018-04-26T04:11:11.106Z,20.37
2018-04-26T04:12:23.913Z,20.25
2018-04-26T04:13:10.525Z,20.22
2018-04-26T04:14:11.717Z,20.36
2018-04-26T04:15:10.649Z,20.24
2018-04-26T04:16:13.017Z,20.21
2018-04-26T04:17:10.808Z,20.37
2018-04-26T04:18:11.256Z,20.24
2018-04-26T04:19:11.038Z,20.22
2018-04-26T04:20:10.788Z,20.36
2018-04-26T04:21:18.963Z,20.24
2018-04-26T04:22:13.144Z,20.23
2018-04-26T04:23:11.141Z,20.37
2018-04-26T04:24:10.569Z,20.24
2018-04-26T04:25:16.900Z,20.23
2018-04-26T04:26:10.408Z,20.38
2018-04-26T04:27:14.062Z,20.24
2018-04-26T04:28:10.848Z,20.22
2018-04-26T04:29:11.731Z,20.37
2018-04-26T04:30:10.489Z,20.24
2018-04-26T04:31:10.599Z,20.24
2018-04-26T04:32:11.632Z,20.38
2018-04-26T04:33:10.807Z,20.24
2018-04-26T04:34:11.292Z,20.22
2018-04-26T04:35:11.132Z,20.36
2018-04-26T04:36:11.510Z,20.24
2018-04-26T04:37:10.786Z,20.22
2018-04-26T04:38:11.519Z,20.36
2018-04-26T04:39:11.274Z,20.24
2018-04-26T04:40:10.662Z,20.23
2018-04-26T04:41:10.615Z,20.37
2018-04-26T04:42:10.488Z,20.24
2018-04-26T04:43:11.041Z,20.23
2018-04-26T04:44:10.888Z,20.37
2018-04-26T04:45:11.900Z,20.24
2018-04-26T04:46:10.676Z,20.23
2018-04-26T04:47:10.591Z,20.36
2018-04-26T04:48:10.916Z,20.24
2018-04-26T04:49:10.671Z,20.23
2018-04-26T04:50:11.270Z,20.36
2018-04-26T04:51:22.607Z,20.25
2018-04-26T04:52:10.633Z,20.23
2018-04-26T04:53:10.989Z,20.38
2018-04-26T04:54:13.046Z,20.24
2018-04-26T04:55:10.769Z,20.24
2018-04-26T04:56:11.215Z,20.38
2018-04-26T04:57:10.966Z,20.25
2018-04-26T04:58:10.750Z,20.22
2018-04-26T04:59:11.403Z,20.37
2018-04-26T05:00:11.488Z,20.24
2018-04-26T05:01:10.649Z,20.24
2018-04-26T05:02:10.915Z,20.37
2018-04-26T05:03:19.957Z,20.25
2018-04-26T05:04:11.379Z,20.24
2018-04-26T05:05:10.811Z,20.37
2018-04-26T05:06:10.542Z,20.24
2018-04-26T05:07:11.165Z,20.23
2018-04-26T05:08:10.822Z,20.37
2018-04-26T05:09:10.729Z,20.24
2018-04-26T05:10:11.171Z,20.23
2018-04-26T05:11:11.025Z,20.37
2018-04-26T05:12:10.650Z,20.24
2018-04-26T05:13:11.195Z,20.22
2018-04-26T05:14:16.751Z,20.37
2018-04-26T05:15:17.450Z,20.24
2018-04-26T05:16:11.347Z,20.23
2018-04-26T05:17:10.452Z,20.37
2018-04-26T05:18:10.684Z,20.24
2018-04-26T05:19:10.954Z,20.22
2018-04-26T05:20:10.444Z,20.37
2018-04-26T05:21:11.486Z,20.24
2018-04-26T05:22:10.689Z,20.24
2018-04-26T05:23:12.037Z,20.38
2018-04-26T05:24:10.927Z,20.24
2018-04-26T05:25:10.513Z,20.22
2018-04-26T05:26:11.034Z,20.36
2018-04-26T05:27:34.963Z,20.24
2018-04-26T05:28:11.024Z,20.22
2018-04-26T05:29:10.777Z,20.37
2018-04-26T05:30:11.205Z,20.24
2018-04-26T05:31:10.574Z,20.2
2018-04-26T05:32:11.405Z,20.34
2018-04-26T05:33:11.047Z,20.26
2018-04-26T05:34:10.640Z,20.24
2018-04-26T05:35:10.769Z,20.4
2018-04-26T05:36:10.540Z,20.29
2018-04-26T05:37:10.676Z,20.3
2018-04-26T05:38:10.898Z,20.42
2018-04-26T05:39:10.597Z,20.3
2018-04-26T05:40:12.066Z,20.29
2018-04-26T05:41:11.622Z,20.41
2018-04-26T05:42:10.532Z,20.32
2018-04-26T05:43:10.856Z,20.29
2018-04-26T05:44:10.541Z,20.41
2018-04-26T05:45:12.061Z,20.3
2018-04-26T05:46:11.342Z,20.28
2018-04-26T05:47:13.612Z,20.44
2018-04-26T05:48:10.697Z,20.32
2018-04-26T05:49:10.587Z,20.3
2018-04-26T05:50:10.493Z,20.46
2018-04-26T05:51:11.247Z,20.32
2018-04-26T05:52:11.439Z,20.32
2018-04-26T05:53:13.200Z,20.47
2018-04-26T05:54:11.156Z,20.35
2018-04-26T05:55:11.342Z,20.34
2018-04-26T05:56:11.414Z,20.47
2018-04-26T05:57:11.298Z,20.34
2018-04-26T05:58:11.019Z,20.31
2018-04-26T05:59:10.548Z,20.45
2018-04-26T06:00:11.189Z,20.31
2018-04-26T06:01:10.634Z,20.3
2018-04-26T06:02:10.840Z,20.44
2018-04-26T06:03:11.217Z,20.31
2018-04-26T06:04:10.759Z,20.3
2018-04-26T06:05:10.588Z,20.44
2018-04-26T06:06:13.117Z,20.3
2018-04-26T06:07:12.773Z,20.29
2018-04-26T06:08:11.235Z,20.41
2018-04-26T06:09:11.411Z,20.3
2018-04-26T06:10:11.762Z,20.29
2018-04-26T06:11:12.127Z,20.44
2018-04-26T06:12:10.584Z,20.3
2018-04-26T06:13:12.221Z,20.28
2018-04-26T06:14:10.619Z,20.41
2018-04-26T06:15:10.726Z,20.3
2018-04-26T06:16:10.990Z,20.27
2018-04-26T06:17:12.861Z,20.42
2018-04-26T06:18:10.326Z,20.28
2018-04-26T06:19:10.728Z,20.27
2018-04-26T06:20:11.368Z,20.41
2018-04-26T06:21:13.183Z,20.28
2018-04-26T06:22:11.497Z,20.26
2018-04-26T06:23:11.770Z,20.41
2018-04-26T06:24:10.974Z,20.28
2018-04-26T06:25:12.458Z,20.26
2018-04-26T06:26:11.063Z,20.39
2018-04-26T06:27:17.237Z,20.26
2018-04-26T06:28:26.581Z,20.24
2018-04-26T06:29:11.696Z,20.39
2018-04-26T06:30:13.461Z,20.24
2018-04-26T06:31:12.584Z,20.23
2018-04-26T06:32:10.908Z,20.38
2018-04-26T06:33:12.745Z,20.25
2018-04-26T06:34:11.247Z,20.24
2018-04-26T06:35:12.586Z,20.39
2018-04-26T06:36:10.554Z,20.25
2018-04-26T06:37:10.988Z,20.24
2018-04-26T06:38:11.322Z,20.38
2018-04-26T06:39:11.777Z,20.25
2018-04-26T06:40:12.525Z,20.24
2018-04-26T06:41:12.899Z,20.37
2018-04-26T06:42:11.602Z,20.24
2018-04-26T06:43:49.102Z,20.22
2018-04-26T06:49:49.668Z,20.28
2018-04-26T06:50:50.133Z,20.31
2018-04-26T06:51:50.068Z,20.23
2018-04-26T06:52:51.158Z,20.23
2018-04-26T06:53:49.596Z,20.38
2018-04-26T06:54:49.172Z,20.24
2018-04-26T06:55:49.125Z,20.24
2018-04-26T06:56:50.310Z,20.38
2018-04-26T06:57:49.132Z,20.24
2018-04-26T06:58:48.867Z,20.23
2018-04-26T06:59:50.055Z,20.37
2018-04-26T07:00:49.986Z,20.24
2018-04-26T07:01:52.477Z,20.24
2018-04-26T07:02:55.613Z,20.37
2018-04-26T07:03:49.156Z,20.24
2018-04-26T07:04:50.115Z,20.24
2018-04-26T07:05:54.241Z,20.37
2018-04-26T07:06:52.012Z,20.24
2018-04-26T07:07:49.181Z,20.23
2018-04-26T07:08:48.890Z,20.36
2018-04-26T07:09:50.148Z,20.25
2018-04-26T07:10:49.574Z,20.23
2018-04-26T07:11:50.292Z,20.36
2018-04-26T07:12:54.823Z,20.24
2018-04-26T07:13:49.626Z,20.22
2018-04-26T07:14:49.897Z,20.36
2018-04-26T07:15:49.508Z,20.24
2018-04-26T07:16:49.932Z,20.23
2018-04-26T07:17:49.157Z,20.37
2018-04-26T07:18:49.972Z,20.24
2018-04-26T07:19:50.195Z,20.22
2018-04-26T07:20:49.321Z,20.36
2018-04-26T07:21:50.734Z,20.24
2018-04-26T07:22:49.015Z,20.22
2018-04-26T07:23:52.514Z,20.37
2018-04-26T07:24:48.953Z,20.24
2018-04-26T07:25:49.425Z,20.22
2018-04-26T07:26:48.667Z,20.36
2018-04-26T07:27:48.699Z,20.24
2018-04-26T07:28:48.801Z,20.22
2018-04-26T07:29:48.859Z,20.37
2018-04-26T07:30:48.930Z,20.24
2018-04-26T07:31:48.896Z,20.22
2018-04-26T07:32:48.970Z,20.35
2018-04-26T07:33:48.925Z,20.24
2018-04-26T07:34:49.180Z,20.22
2018-04-26T07:35:48.732Z,20.36
2018-04-26T07:36:48.682Z,20.23
2018-04-26T07:37:48.825Z,20.21
2018-04-26T07:38:50.720Z,20.35
2018-04-26T07:39:50.191Z,20.24
2018-04-26T07:40:48.895Z,20.21
2018-04-26T07:41:48.733Z,20.35
2018-04-26T07:42:48.722Z,20.22
2018-04-26T07:43:48.852Z,20.21
2018-04-26T07:44:49.164Z,20.35
2018-04-26T07:45:48.874Z,20.23
2018-04-26T07:46:48.837Z,20.21
2018-04-26T07:47:48.787Z,20.35
2018-04-26T07:48:48.715Z,20.23
2018-04-26T07:49:48.849Z,20.21
2018-04-26T07:50:48.921Z,20.34
2018-04-26T07:51:48.817Z,20.22
2018-04-26T07:52:48.977Z,20.2
2018-04-26T07:53:48.898Z,20.35
2018-04-26T07:54:48.706Z,20.22
2018-04-26T07:55:48.728Z,20.2
2018-04-26T07:56:48.755Z,20.33
2018-04-26T07:57:48.873Z,20.22
2018-04-26T07:58:50.772Z,20.2
2018-04-26T08:05:30.078Z,20.24
2018-04-26T08:06:30.916Z,20.29
2018-04-26T08:12:50.819Z,20.24
2018-04-26T08:13:50.905Z,20.27
2018-04-26T08:14:52.345Z,20.2
2018-04-26T08:15:51.312Z,20.19
2018-04-26T08:16:51.701Z,20.32
2018-04-26T08:17:52.099Z,20.21
2018-04-26T08:18:51.046Z,20.19
2018-04-26T08:19:51.639Z,20.34
2018-04-26T08:20:54.237Z,20.2
2018-04-26T08:21:53.725Z,20.18
2018-04-26T08:22:50.953Z,20.32
2018-04-26T08:23:51.013Z,20.18
2018-04-26T08:24:51.356Z,20.18
2018-04-26T08:25:50.988Z,20.32
2018-04-26T08:26:50.930Z,20.19
2018-04-26T08:27:50.894Z,20.18
2018-04-26T08:28:50.859Z,20.33
2018-04-26T08:29:50.733Z,20.19
2018-04-26T08:30:50.956Z,20.18
2018-04-26T08:31:50.745Z,20.31
2018-04-26T08:32:50.956Z,20.19
2018-04-26T08:33:50.833Z,20.17
2018-04-26T08:34:50.881Z,20.31
2018-04-26T08:35:50.759Z,20.18
2018-04-26T08:36:51.132Z,20.17
2018-04-26T08:37:50.822Z,20.32
2018-04-26T08:38:50.899Z,20.18
2018-04-26T08:39:50.934Z,20.17
2018-04-26T08:40:50.914Z,20.32
2018-04-26T08:41:50.805Z,20.18
2018-04-26T08:42:50.886Z,20.17
2018-04-26T08:43:50.918Z,20.32
2018-04-26T08:44:50.816Z,20.18
2018-04-26T08:45:50.855Z,20.17
2018-04-26T08:46:50.902Z,20.3
2018-04-26T08:47:50.769Z,20.18
2018-04-26T08:48:50.998Z,20.16
2018-04-26T08:49:50.857Z,20.3
2018-04-26T08:50:50.878Z,20.18
2018-04-26T08:51:50.783Z,20.16
2018-04-26T08:52:50.870Z,20.3
2018-04-26T08:53:50.928Z,20.18
2018-04-26T08:54:50.809Z,20.16
2018-04-26T08:55:50.797Z,20.3
2018-04-26T08:56:50.982Z,20.18
2018-04-26T08:57:50.912Z,20.16
2018-04-26T08:58:50.964Z,20.3
2018-04-26T08:59:51.437Z,20.17
2018-04-26T09:00:50.778Z,20.16
2018-04-26T09:01:50.729Z,20.3
2018-04-26T09:02:50.914Z,20.18
2018-04-26T09:03:50.764Z,20.16
2018-04-26T09:04:50.908Z,20.3
2018-04-26T09:05:50.807Z,20.17
2018-04-26T09:06:51.561Z,20.16
2018-04-26T09:07:50.941Z,20.3
2018-04-26T09:08:50.775Z,20.17
2018-04-26T09:09:50.792Z,20.15
2018-04-26T09:10:50.879Z,20.3
2018-04-26T09:11:50.738Z,20.17
2018-04-26T09:12:50.889Z,20.15
2018-04-26T09:13:50.792Z,20.29
2018-04-26T09:14:50.922Z,20.17
2018-04-26T09:15:51.230Z,20.15
2018-04-26T09:16:50.914Z,20.3
2018-04-26T09:17:50.791Z,20.17
2018-04-26T09:18:50.852Z,20.14
2018-04-26T09:19:50.889Z,20.29
2018-04-26T09:20:50.869Z,20.17
2018-04-26T09:21:50.960Z,20.15
2018-04-26T09:22:50.897Z,20.29
2018-04-26T09:23:50.858Z,20.16
2018-04-26T09:24:50.770Z,20.13
2018-04-26T09:25:50.900Z,20.29
2018-04-26T09:26:50.769Z,20.16
2018-04-26T09:27:50.902Z,20.14
2018-04-26T09:28:50.756Z,20.28
2018-04-26T09:29:50.725Z,20.16
2018-04-26T09:30:50.875Z,20.14
2018-04-26T09:31:50.748Z,20.29
2018-04-26T09:32:50.796Z,20.16
2018-04-26T09:33:50.876Z,20.13
2018-04-26T09:34:50.990Z,20.29
2018-04-26T09:35:50.759Z,20.16
2018-04-26T09:36:51.160Z,20.13
2018-04-26T09:37:50.939Z,20.29
2018-04-26T09:38:50.829Z,20.16
2018-04-26T09:39:50.863Z,20.14
2018-04-26T09:40:50.725Z,20.28
2018-04-26T09:41:50.797Z,20.16
2018-04-26T09:42:50.910Z,20.14
2018-04-26T09:43:50.879Z,20.29
2018-04-26T09:44:50.729Z,20.15
2018-04-26T09:45:50.930Z,20.13
2018-04-26T09:46:51.330Z,20.28
2018-04-26T09:47:50.915Z,20.15
2018-04-26T09:48:50.803Z,20.13
2018-04-26T09:49:50.879Z,20.27
2018-04-26T09:50:50.795Z,20.15
2018-04-26T09:51:50.796Z,20.13
2018-04-26T09:52:50.879Z,20.28
2018-04-26T09:53:50.762Z,20.15
2018-04-26T09:54:50.809Z,20.13
2018-04-26T09:55:50.932Z,20.28
2018-04-26T09:56:50.925Z,20.15
2018-04-26T09:57:52.013Z,20.13
2018-04-26T09:58:50.782Z,20.28
2018-04-26T09:59:50.945Z,20.15
2018-04-26T10:00:50.851Z,20.13
2018-04-26T10:01:52.892Z,20.28
2018-04-26T10:02:50.966Z,20.15
2018-04-26T10:03:51.020Z,20.13
2018-04-26T10:04:51.069Z,20.28
2018-04-26T10:05:51.260Z,20.15
2018-04-26T10:06:51.021Z,20.12
2018-04-26T10:07:50.989Z,20.26
2018-04-26T10:08:51.429Z,20.15
2018-04-26T10:09:51.043Z,20.12
2018-04-26T10:10:51.034Z,20.28
2018-04-26T10:11:50.903Z,20.15
2018-04-26T10:12:51.138Z,20.12
2018-04-26T10:13:51.064Z,20.27
2018-04-26T10:14:50.946Z,20.14
2018-04-26T10:15:51.142Z,20.12
2018-04-26T10:16:51.028Z,20.27
2018-04-26T10:17:51.008Z,20.14
2018-04-26T10:18:50.973Z,20.12
2018-04-26T10:19:51.041Z,20.27
2018-04-26T10:20:50.970Z,20.14
2018-04-26T10:21:50.954Z,20.13
2018-04-26T10:22:51.108Z,20.28
2018-04-26T10:23:51.095Z,20.14
2018-04-26T10:24:50.968Z,20.12
2018-04-26T10:25:51.045Z,20.27
2018-04-26T10:26:50.981Z,20.15
2018-04-26T10:27:51.287Z,20.12
2018-04-26T10:28:50.875Z,20.26
2018-04-26T10:29:51.026Z,20.14
2018-04-26T10:30:50.922Z,20.12
2018-04-26T10:31:50.761Z,20.26
2018-04-26T10:32:51.027Z,20.14
2018-04-26T10:33:50.815Z,20.12
2018-04-26T10:34:50.924Z,20.26
2018-04-26T10:35:51.029Z,20.12
2018-04-26T10:36:51.065Z,20.11
2018-04-26T10:37:51.042Z,20.24
2018-04-26T10:38:51.114Z,20.14
2018-04-26T10:39:50.944Z,20.12
2018-04-26T10:40:50.957Z,20.24
2018-04-26T10:41:50.916Z,20.18
2018-04-26T10:42:51.076Z,20.15
2018-04-26T10:43:50.826Z,20.26
2018-04-26T10:44:50.818Z,20.18
2018-04-26T10:45:51.168Z,20.18
2018-04-26T10:46:50.824Z,20.31
2018-04-26T10:47:51.163Z,20.21
2018-04-26T10:48:50.820Z,20.19
2018-04-26T10:49:51.250Z,20.28
2018-04-26T10:50:51.216Z,20.24
2018-04-26T10:51:50.768Z,20.28
2018-04-26T10:52:51.372Z,20.42
2018-04-26T10:53:51.282Z,20.3
2018-04-26T10:54:51.338Z,20.29
2018-04-26T10:55:50.807Z,20.41
2018-04-26T10:56:51.363Z,20.31
2018-04-26T10:57:50.921Z,20.29
2018-04-26T10:58:50.991Z,20.45
2018-04-26T10:59:50.904Z,20.32
2018-04-26T11:00:51.007Z,20.33
2018-04-26T11:01:50.774Z,20.47
2018-04-26T11:02:51.097Z,20.39
2018-04-26T11:03:51.153Z,20.37
2018-04-26T11:04:50.997Z,20.49
2018-04-26T11:05:50.910Z,20.35
2018-04-26T11:06:50.946Z,20.33
2018-04-26T11:07:51.038Z,20.38
2018-04-26T11:08:51.006Z,20.35
2018-04-26T11:09:51.014Z,20.36
2018-04-26T11:10:51.069Z,20.47
2018-04-26T11:11:50.815Z,20.41
2018-04-26T11:12:51.235Z,20.38
2018-04-26T11:13:50.936Z,20.49
2018-04-26T11:14:51.042Z,20.43
2018-04-26T11:15:50.830Z,20.41
2018-04-26T11:16:51.106Z,20.55
2018-04-26T11:17:51.261Z,20.46
2018-04-26T11:18:51.072Z,20.46
2018-04-26T11:19:51.008Z,20.58
2018-04-26T11:20:51.048Z,20.49
2018-04-26T11:21:50.761Z,20.48
2018-04-26T11:22:51.057Z,20.64
2018-04-26T11:23:50.971Z,20.5
2018-04-26T11:24:51.089Z,20.55
2018-04-26T11:25:51.200Z,20.63
2018-04-26T11:26:51.126Z,20.57
2018-04-26T11:27:50.893Z,20.63
2018-04-26T11:28:51.091Z,20.7
2018-04-26T11:29:51.031Z,20.58
2018-04-26T11:30:51.093Z,20.5
2018-04-26T11:31:50.831Z,20.65
2018-04-26T11:32:51.174Z,20.59
2018-04-26T11:33:50.947Z,20.6
2018-04-26T11:34:51.133Z,20.7
2018-04-26T11:35:51.562Z,20.59
2018-04-26T11:36:50.858Z,20.58
2018-04-26T11:37:50.970Z,20.72
2018-04-26T11:38:51.007Z,20.62
2018-04-26T11:39:50.934Z,20.61
2018-04-26T11:40:50.888Z,20.75
2018-04-26T11:41:50.824Z,20.65
2018-04-26T11:42:50.926Z,20.64
2018-04-26T11:43:51.200Z,20.78
2018-04-26T11:44:50.993Z,20.65
2018-04-26T11:45:51.076Z,20.64
2018-04-26T11:46:50.886Z,20.72
2018-04-26T11:47:50.764Z,20.65
2018-04-26T11:48:51.064Z,20.66
2018-04-26T11:49:50.946Z,20.83
2018-04-26T11:50:51.012Z,20.7
2018-04-26T11:51:50.882Z,20.7
2018-04-26T11:52:51.084Z,20.8
2018-04-26T11:53:51.063Z,20.7
2018-04-26T11:54:51.319Z,20.68
2018-04-26T11:55:50.843Z,20.8
2018-04-26T11:56:50.988Z,20.71
2018-04-26T11:57:50.907Z,20.71
2018-04-26T11:58:50.860Z,20.76
2018-04-26T11:59:51.479Z,20.71
2018-04-26T12:00:51.040Z,20.7
2018-04-26T12:01:50.861Z,20.83
2018-04-26T12:02:53.437Z,20.73
2018-04-26T12:03:51.107Z,20.71
2018-04-26T12:04:50.937Z,20.85
2018-04-26T12:05:51.083Z,20.88
2018-04-26T12:06:50.989Z,20.88
2018-04-26T12:07:50.997Z,20.89
2018-04-26T12:08:50.838Z,20.69
2018-04-26T12:09:50.865Z,20.83
2018-04-26T12:10:51.003Z,20.89
2018-04-26T12:11:50.873Z,20.72
2018-04-26T12:12:51.030Z,20.68
2018-04-26T12:13:50.991Z,20.83
2018-04-26T12:14:50.896Z,20.71
2018-04-26T12:15:51.055Z,20.69
2018-04-26T12:16:50.966Z,20.8
2018-04-26T12:17:50.791Z,20.71
2018-04-26T12:18:51.015Z,20.67
2018-04-26T12:19:51.115Z,20.81
2018-04-26T12:20:50.976Z,20.68
2018-04-26T12:21:50.834Z,20.65
2018-04-26T12:22:50.765Z,20.77
2018-04-26T12:23:50.915Z,20.66
2018-04-26T12:24:51.133Z,20.63
2018-04-26T12:25:50.872Z,20.73
2018-04-26T12:26:50.997Z,20.63
2018-04-26T12:27:51.048Z,20.61
2018-04-26T12:28:50.880Z,20.75
2018-04-26T12:29:50.987Z,20.61
2018-04-26T12:30:50.923Z,20.57
2018-04-26T12:31:50.698Z,20.67
2018-04-26T12:32:51.028Z,20.59
2018-04-26T12:33:51.023Z,20.56
2018-04-26T12:34:50.928Z,20.66
2018-04-26T12:35:51.079Z,20.57
2018-04-26T12:36:50.832Z,20.55
2018-04-26T12:37:51.063Z,20.66
2018-04-26T12:38:50.971Z,20.55
2018-04-26T12:39:50.921Z,20.54
2018-04-26T12:40:50.852Z,20.68
2018-04-26T12:41:50.991Z,20.55
2018-04-26T12:42:51.075Z,20.52
2018-04-26T12:43:51.017Z,20.69
2018-04-26T12:44:51.031Z,20.54
2018-04-26T12:45:50.937Z,20.51
2018-04-26T12:46:50.872Z,20.66
2018-04-26T12:47:51.033Z,20.53
2018-04-26T12:48:50.948Z,20.49
2018-04-26T12:49:51.043Z,20.65
2018-04-26T12:50:50.751Z,20.52
2018-04-26T12:51:50.931Z,20.49
2018-04-26T12:52:50.995Z,20.62
2018-04-26T12:53:50.974Z,20.49
2018-04-26T12:54:50.990Z,20.47
2018-04-26T12:55:51.003Z,20.62
2018-04-26T12:56:50.954Z,20.47
2018-04-26T12:57:50.967Z,20.46
2018-04-26T12:58:50.924Z,20.6
2018-04-26T12:59:50.884Z,20.47
2018-04-26T13:00:51.100Z,20.45
2018-04-26T13:01:51.208Z,20.59
2018-04-26T13:02:50.970Z,20.46
2018-04-26T13:03:51.028Z,20.43
2018-04-26T13:04:51.522Z,20.58
2018-04-26T13:05:51.026Z,20.44
2018-04-26T13:06:50.850Z,20.42
2018-04-26T13:07:51.247Z,20.51
2018-04-26T13:08:50.944Z,20.42
2018-04-26T13:09:50.972Z,20.44
2018-04-26T13:10:51.216Z,20.55